Time;durP1;ratioP1;P1;durP2;ratioP2;P2;SDS_P1;SDS_P2;PMS_P1;PMS_P2;Temp;Humidity;BMP_temperature;BMP_pressure;BME280_temperature;BME280_humidity;BME280_pressure;Samples;Min_cycle;Max_cycle;Signal;HPM_P1;HPM_P2
2023/07/10 00:01:55;;;;;;;0.00;0.00;;;22.90;80.20;;;;;;5043123;28;20139;-74
2023/07/10 00:04:21;;;;;;;0.00;0.00;;;22.80;81.00;;;;;;5037529;28;20108;-74
2023/07/10 00:06:47;;;;;;;0.00;0.00;;;22.80;80.70;;;;;;5042370;28;20017;-74
2023/07/10 00:09:15;;;;;;;0.55;0.55;;;22.80;81.20;;;;;;5041319;28;20039;-74
2023/07/10 00:11:50;;;;;;;0.00;0.00;;;22.80;81.60;;;;;;5041324;28;20040;-74
2023/07/10 00:14:22;;;;;;;0.00;0.00;;;22.80;81.70;;;;;;5035002;28;20107;-74
2023/07/10 00:16:49;;;;;;;0.00;0.00;;;22.80;81.70;;;;;;5044091;28;20017;-74
2023/07/10 00:19:15;;;;;;;0.00;0.00;;;22.70;82.10;;;;;;5043228;28;20037;-74
2023/07/10 00:21:42;;;;;;;0.45;0.20;;;22.70;82.10;;;;;;5046478;28;20036;-74
2023/07/10 00:24:11;;;;;;;0.00;0.00;;;22.60;82.10;;;;;;5043769;28;20021;-74
2023/07/10 00:26:45;;;;;;;0.00;0.00;;;22.50;82.50;;;;;;5043341;28;20063;-74
2023/07/10 00:29:24;;;;;;;0.00;0.00;;;22.40;82.60;;;;;;5041401;28;20501;-74
2023/07/10 00:31:51;;;;;;;0.10;0.10;;;22.40;82.40;;;;;;5046263;28;20036;-73
2023/07/10 00:34:25;;;;;;;0.10;0.10;;;22.30;83.10;;;;;;5040264;28;20106;-74
2023/07/10 00:36:58;;;;;;;0.22;0.22;;;22.30;83.60;;;;;;5046384;28;20025;-74
2023/07/10 00:39:28;;;;;;;0.00;0.00;;;22.20;84.00;;;;;;5043013;28;20028;-74
2023/07/10 00:42:20;;;;;;;0.00;0.00;;;22.20;84.30;;;;;;5042761;28;20047;-73
2023/07/10 00:44:54;;;;;;;0.00;0.00;;;22.10;85.40;;;;;;5037086;28;20028;-75
2023/07/10 00:47:35;;;;;;;0.00;0.00;;;22.10;86.00;;;;;;5043198;28;20029;-74
2023/07/10 00:50:20;;;;;;;0.00;0.00;;;22.10;86.40;;;;;;5045098;28;20028;-74
2023/07/10 00:52:48;;;;;;;0.00;0.00;;;22.10;85.70;;;;;;5040758;28;20040;-74
2023/07/10 00:55:32;;;;;;;0.00;0.00;;;22.10;85.10;;;;;;5038345;28;21012;-74
2023/07/10 00:58:32;;;;;;;0.00;0.00;;;22.20;85.80;;;;;;5045453;28;20082;-74
2023/07/10 01:01:02;;;;;;;0.15;0.13;;;22.20;85.40;;;;;;5040348;28;20528;-74
2023/07/10 01:03:30;;;;;;;0.00;0.00;;;22.20;85.10;;;;;;5044402;28;20078;-73
2023/07/10 01:05:59;;;;;;;0.00;0.00;;;22.20;84.20;;;;;;5039416;28;20029;-74
2023/07/10 01:08:27;;;;;;;0.08;0.08;;;22.10;84.10;;;;;;5046574;28;20927;-73
2023/07/10 01:10:55;;;;;;;0.10;0.10;;;22.10;83.60;;;;;;5039405;28;20032;-74
2023/07/10 01:13:22;;;;;;;0.00;0.00;;;22.20;83.30;;;;;;5040373;28;20025;-74
2023/07/10 01:15:50;;;;;;;0.00;0.00;;;22.20;83.40;;;;;;5040794;28;20536;-74
2023/07/10 01:18:24;;;;;;;0.00;0.00;;;22.20;83.80;;;;;;5042741;28;20081;-74
2023/07/10 01:20:57;;;;;;;0.08;0.08;;;22.20;83.50;;;;;;5041071;28;20025;-74
2023/07/10 01:23:24;;;;;;;0.00;0.00;;;22.20;83.20;;;;;;5038930;28;20029;-74
2023/07/10 01:25:59;;;;;;;0.00;0.00;;;22.30;83.40;;;;;;5043363;28;20024;-74
2023/07/10 01:28:28;;;;;;;0.00;0.00;;;22.20;82.80;;;;;;5038570;28;20449;-73
2023/07/10 01:30:56;;;;;;;0.00;0.00;;;22.20;83.10;;;;;;5037744;28;20385;-73
2023/07/10 01:33:29;;;;;;;0.00;0.00;;;22.20;83.60;;;;;;5043346;28;20025;-73
2023/07/10 01:35:59;;;;;;;2.45;0.25;;;22.20;84.00;;;;;;5038212;28;20025;-74
2023/07/10 01:38:41;;;;;;;0.20;0.20;;;22.20;85.10;;;;;;5039576;28;20025;-73
2023/07/10 01:41:38;;;;;;;0.10;0.10;;;22.10;85.70;;;;;;5037903;28;20028;-73
2023/07/10 01:44:26;;;;;;;0.20;0.20;;;22.00;86.40;;;;;;5039464;28;20047;-73
2023/07/10 01:46:57;;;;;;;0.15;0.15;;;21.90;87.10;;;;;;5036741;28;20060;-73
2023/07/10 01:49:35;;;;;;;0.00;0.00;;;21.80;88.00;;;;;;5038868;28;20108;-74
2023/07/10 01:52:04;;;;;;;0.00;0.00;;;21.70;88.00;;;;;;5035392;28;20028;-73
2023/07/10 01:54:40;;;;;;;0.00;0.00;;;21.80;88.60;;;;;;5038675;28;20023;-74
2023/07/10 01:57:08;;;;;;;0.27;0.27;;;21.70;89.40;;;;;;5039132;28;20100;-73
2023/07/10 01:59:35;;;;;;;0.00;0.00;;;21.70;90.00;;;;;;5037477;28;20154;-74
2023/07/10 02:02:01;;;;;;;0.00;0.00;;;21.70;90.20;;;;;;5038875;28;20115;-73
2023/07/10 02:04:28;;;;;;;0.28;0.28;;;21.70;90.10;;;;;;5042097;28;20032;-73
2023/07/10 02:06:57;;;;;;;0.00;0.00;;;21.80;90.00;;;;;;5040076;28;20020;-74
2023/07/10 02:09:27;;;;;;;0.00;0.00;;;21.80;90.10;;;;;;5039135;28;20029;-74
2023/07/10 02:11:55;;;;;;;0.00;0.00;;;21.80;90.00;;;;;;5039885;28;20017;-73
2023/07/10 02:14:21;;;;;;;0.00;0.00;;;21.80;90.00;;;;;;5044420;28;20470;-73
2023/07/10 02:16:48;;;;;;;0.00;0.00;;;21.80;90.30;;;;;;5037632;28;20087;-74
2023/07/10 02:19:14;;;;;;;;;;;21.80;89.70;;;;;;5039091;28;20025;-74
2023/07/10 02:21:50;;;;;;;0.05;0.05;;;21.70;89.80;;;;;;5043985;28;19951;-74
2023/07/10 02:24:16;;;;;;;0.00;0.00;;;21.70;90.10;;;;;;5036833;28;20032;-74
2023/07/10 02:26:41;;;;;;;0.00;0.00;;;21.70;90.30;;;;;;5033505;28;20078;-74
2023/07/10 02:29:10;;;;;;;0.00;0.00;;;21.70;90.20;;;;;;5037243;28;20064;-74
2023/07/10 02:31:36;;;;;;;0.00;0.00;;;21.70;90.30;;;;;;5040797;28;20043;-74
2023/07/10 02:34:01;;;;;;;0.00;0.00;;;21.70;90.40;;;;;;5037240;28;20395;-73
2023/07/10 02:36:29;;;;;;;0.25;0.25;;;21.80;90.10;;;;;;5039767;28;20588;-74
2023/07/10 02:38:55;;;;;;;0.10;0.10;;;21.80;90.10;;;;;;5038701;28;20903;-74
2023/07/10 02:41:21;;;;;;;;;;;21.80;90.10;;;;;;5042399;28;20421;-74
2023/07/10 02:43:52;;;;;;;0.22;0.22;;;21.90;89.40;;;;;;5033868;28;19916;-73
2023/07/10 02:46:18;;;;;;;0.00;0.00;;;22.00;87.90;;;;;;5035730;28;20745;-74
2023/07/10 02:48:43;;;;;;;0.10;0.10;;;22.10;85.40;;;;;;5033954;28;20024;-73
2023/07/10 02:51:13;;;;;;;0.00;0.00;;;22.20;85.30;;;;;;5040846;28;20820;-73
2023/07/10 02:53:42;;;;;;;0.00;0.00;;;22.30;84.70;;;;;;5033146;28;20425;-73
2023/07/10 02:56:09;;;;;;;0.00;0.00;;;22.30;85.10;;;;;;5038628;28;20027;-73
2023/07/10 02:58:36;;;;;;;0.20;0.10;;;22.30;86.20;;;;;;5039142;28;20044;-74
2023/07/10 03:01:08;;;;;;;0.28;0.05;;;22.30;87.00;;;;;;5039540;28;20021;-73
2023/07/10 03:03:37;;;;;;;0.00;0.00;;;22.20;87.90;;;;;;5045472;28;20100;-73
2023/07/10 03:06:04;;;;;;;0.00;0.00;;;22.20;89.30;;;;;;5037564;28;20440;-73
2023/07/10 03:08:30;;;;;;;0.00;0.00;;;22.10;90.30;;;;;;5043501;28;20125;-74
2023/07/10 03:11:00;;;;;;;0.00;0.00;;;22.00;90.60;;;;;;5039277;28;20876;-74
2023/07/10 03:13:25;;;;;;;0.00;0.00;;;21.90;91.10;;;;;;5038358;28;20025;-74
2023/07/10 03:16:06;;;;;;;0.15;0.15;;;21.80;91.30;;;;;;5040872;28;20025;-74
2023/07/10 03:18:35;;;;;;;0.00;0.00;;;21.80;91.50;;;;;;5043501;28;20021;-73
2023/07/10 03:21:02;;;;;;;0.00;0.00;;;21.70;91.70;;;;;;5054335;28;20470;-74
2023/07/10 03:23:32;;;;;;;0.00;0.00;;;21.70;91.80;;;;;;5041082;28;20021;-73
2023/07/10 03:26:02;;;;;;;0.03;0.03;;;21.80;91.80;;;;;;5040859;28;20703;-73
2023/07/10 03:28:33;;;;;;;0.65;0.65;;;21.80;92.00;;;;;;5037852;28;20134;-74
2023/07/10 03:31:00;;;;;;;0.00;0.00;;;21.70;92.10;;;;;;5046271;28;20017;-74
2023/07/10 03:33:27;;;;;;;0.15;0.00;;;21.70;92.40;;;;;;5046867;28;20108;-74
2023/07/10 03:36:06;;;;;;;0.20;0.20;;;21.70;92.90;;;;;;5044734;28;20382;-74
2023/07/10 03:38:33;;;;;;;0.00;0.00;;;21.80;93.00;;;;;;5044800;28;20128;-74
2023/07/10 03:40:59;;;;;;;0.00;0.00;;;21.80;93.20;;;;;;5046078;28;20417;-74
2023/07/10 03:43:26;;;;;;;0.00;0.00;;;21.80;93.60;;;;;;5044966;28;20029;-73
2023/07/10 03:45:55;;;;;;;0.10;0.10;;;21.90;93.60;;;;;;5039790;28;20017;-73
2023/07/10 03:48:25;;;;;;;0.00;0.00;;;21.90;94.60;;;;;;5045168;28;20066;-74
2023/07/10 03:50:52;;;;;;;0.00;0.00;;;22.00;95.20;;;;;;5042240;28;20021;-74
2023/07/10 03:53:18;;;;;;;0.57;0.22;;;22.10;95.30;;;;;;5040192;28;20025;-74
2023/07/10 03:55:55;;;;;;;0.15;0.10;;;22.10;95.60;;;;;;5041378;28;20025;-73
2023/07/10 03:58:28;;;;;;;0.00;0.00;;;22.20;96.10;;;;;;5043309;28;20667;-73
2023/07/10 04:01:02;;;;;;;0.10;0.10;;;22.20;95.00;;;;;;5042105;28;20025;-73
2023/07/10 04:03:36;;;;;;;0.00;0.00;;;22.30;96.70;;;;;;5044268;28;20021;-74
2023/07/10 04:06:14;;;;;;;0.20;0.10;;;22.40;96.70;;;;;;5040140;28;20033;-73
2023/07/10 04:08:41;;;;;;;0.00;0.00;;;22.40;96.40;;;;;;5038845;28;20495;-73
2023/07/10 04:11:21;;;;;;;1.27;1.08;;;22.60;96.30;;;;;;5043346;28;20036;-73
2023/07/10 04:13:54;;;;;;;0.00;0.00;;;22.80;96.10;;;;;;5039019;28;20056;-73
2023/07/10 04:16:23;;;;;;;0.38;0.38;;;22.80;95.70;;;;;;5041655;28;20425;-74
2023/07/10 04:18:50;;;;;;;0.25;0.13;;;22.90;95.20;;;;;;5044633;28;20028;-74
2023/07/10 04:21:28;;;;;;;0.20;0.20;;;22.90;94.90;;;;;;5044067;28;20021;-74
2023/07/10 04:23:59;;;;;;;0.08;0.08;;;22.90;94.90;;;;;;5039388;28;20025;-73
2023/07/10 04:26:28;;;;;;;0.63;0.20;;;22.90;95.40;;;;;;5040532;28;20795;-74
2023/07/10 04:28:58;;;;;;;0.20;0.10;;;23.00;95.40;;;;;;5037217;28;20029;-73
2023/07/10 04:31:31;;;;;;;0.13;0.13;;;23.10;94.90;;;;;;5047882;28;20124;-73
2023/07/10 04:33:57;;;;;;;0.10;0.00;;;23.10;94.70;;;;;;5040936;28;20075;-73
2023/07/10 04:36:24;;;;;;;;;;;23.10;95.20;;;;;;5042583;28;20067;-73
2023/07/10 04:38:51;;;;;;;0.00;0.00;;;23.20;94.60;;;;;;5041269;28;19944;-73
2023/07/10 04:41:22;;;;;;;0.00;0.00;;;23.30;95.20;;;;;;5044962;28;20549;-73
2023/07/10 04:43:54;;;;;;;0.00;0.00;;;23.40;95.20;;;;;;5038234;28;20104;-73
2023/07/10 04:46:21;;;;;;;0.00;0.00;;;23.50;95.20;;;;;;5040020;28;20045;-73
2023/07/10 04:48:50;;;;;;;0.05;0.05;;;23.50;95.00;;;;;;5038599;28;20454;-74
2023/07/10 04:51:22;;;;;;;0.28;0.05;;;23.50;95.10;;;;;;5038584;28;20029;-74
2023/07/10 04:53:50;;;;;;;0.45;0.22;;;23.60;95.20;;;;;;5038591;28;20068;-75
2023/07/10 04:56:21;;;;;;;0.10;0.10;;;23.60;94.90;;;;;;5042209;28;20027;-73
2023/07/10 04:58:49;;;;;;;0.00;0.00;;;23.70;95.30;;;;;;5043639;28;20326;-77
2023/07/10 05:01:16;;;;;;;0.10;0.10;;;23.80;95.10;;;;;;5040685;28;20792;-75
2023/07/10 05:03:46;;;;;;;0.10;0.10;;;23.80;95.10;;;;;;5045118;28;20033;-76
2023/07/10 05:06:12;;;;;;;1.10;0.22;;;23.80;97.70;;;;;;5038816;28;20024;-76
